Time;durP1;ratioP1;P1;durP2;ratioP2;P2;SDS_P1;SDS_P2;PMS_P1;PMS_P2;Temp;Humidity;BMP_temperature;BMP_pressure;BME280_temperature;BME280_humidity;BME280_pressure;Samples;Min_cycle;Max_cycle;Signal;HPM_P1;HPM_P2
2021/03/26 00:01:32;;;;;;;24.63;11.50;;;7.10;70.30;;;;;;5054633;28;20108;-76
2021/03/26 00:04:00;;;;;;;24.13;11.23;;;7.20;70.40;;;;;;5072836;28;20203;-76
2021/03/26 00:06:30;;;;;;;17.95;11.40;;;7.20;70.60;;;;;;5054973;28;20039;-76
2021/03/26 00:08:56;;;;;;;26.48;12.73;;;7.10;70.70;;;;;;5056857;28;20094;-76
2021/03/26 00:11:25;;;;;;;26.88;13.45;;;7.10;70.80;;;;;;5052034;28;20466;-76
2021/03/26 00:13:51;;;;;;;20.23;12.00;;;7.10;71.10;;;;;;5058193;28;20039;-76
2021/03/26 00:16:19;;;;;;;24.13;12.07;;;7.00;71.20;;;;;;5058118;28;20170;-76
2021/03/26 00:18:45;;;;;;;21.55;12.88;;;6.90;71.40;;;;;;5058028;28;20047;-76
2021/03/26 00:21:11;;;;;;;23.25;12.75;;;7.00;71.70;;;;;;5058098;28;20029;-76
2021/03/26 00:23:37;;;;;;;22.35;12.85;;;6.90;71.80;;;;;;5057990;28;20028;-76
2021/03/26 00:26:03;;;;;;;27.77;13.50;;;6.90;72.10;;;;;;5057924;28;20043;-76
2021/03/26 00:28:29;;;;;;;21.52;12.50;;;6.80;72.10;;;;;;5075669;28;20031;-75
2021/03/26 00:30:54;;;;;;;26.77;13.73;;;6.80;72.20;;;;;;5057883;28;20024;-76
2021/03/26 00:33:20;;;;;;;30.23;13.98;;;6.70;72.50;;;;;;5057640;28;20028;-76
2021/03/26 00:35:47;;;;;;;19.50;10.95;;;6.70;72.70;;;;;;5057681;28;20064;-76
2021/03/26 00:38:12;;;;;;;20.63;12.55;;;6.70;72.90;;;;;;5057658;28;20040;-75
2021/03/26 00:40:38;;;;;;;23.05;12.60;;;6.70;72.80;;;;;;5075607;28;20124;-75
2021/03/26 00:43:04;;;;;;;19.85;11.55;;;6.80;72.50;;;;;;5057810;28;20028;-76
2021/03/26 00:45:33;;;;;;;22.20;12.07;;;6.70;72.50;;;;;;5075518;28;20024;-76
2021/03/26 00:48:01;;;;;;;23.08;13.00;;;6.70;72.80;;;;;;5075597;28;20024;-75
2021/03/26 00:50:43;;;;;;;28.85;15.73;;;6.70;72.90;;;;;;5057411;28;20469;-76
2021/03/26 00:53:13;;;;;;;24.42;13.07;;;6.80;72.90;;;;;;5057610;28;20025;-75
2021/03/26 00:55:40;;;;;;;21.48;11.82;;;6.80;72.90;;;;;;5057409;28;20066;-76
2021/03/26 00:58:06;;;;;;;22.52;12.60;;;6.90;72.70;;;;;;5074950;28;20033;-76
2021/03/26 01:00:32;;;;;;;26.05;13.77;;;6.90;72.50;;;;;;5057035;28;20024;-76
2021/03/26 01:02:58;;;;;;;19.70;12.15;;;6.80;72.30;;;;;;5075354;28;20020;-76
2021/03/26 01:05:31;;;;;;;22.48;10.93;;;6.80;73.10;;;;;;5057268;28;20037;-75
2021/03/26 01:07:56;;;;;;;22.83;12.30;;;6.80;72.30;;;;;;5057307;28;20115;-76
2021/03/26 01:10:26;;;;;;;24.70;13.05;;;6.80;72.30;;;;;;5074917;28;20364;-76
2021/03/26 01:12:53;;;;;;;23.00;12.80;;;6.70;72.50;;;;;;5075078;28;20033;-76
2021/03/26 01:15:21;;;;;;;24.35;13.10;;;6.60;72.70;;;;;;5073880;28;20100;-76
2021/03/26 01:17:49;;;;;;;23.15;13.85;;;6.60;73.00;;;;;;5074326;28;20488;-75
2021/03/26 01:20:21;;;;;;;21.80;12.82;;;6.60;73.30;;;;;;5073329;28;20252;-76
2021/03/26 01:22:47;;;;;;;25.40;13.30;;;6.50;73.60;;;;;;5056677;28;20024;-76
2021/03/26 01:25:17;;;;;;;20.23;13.30;;;6.50;73.60;;;;;;5074532;28;20099;-75
2021/03/26 01:27:43;;;;;;;27.13;14.27;;;6.60;73.60;;;;;;5074552;28;20024;-75
2021/03/26 01:30:12;;;;;;;25.08;13.65;;;6.50;73.70;;;;;;5074343;28;20107;-75
2021/03/26 01:32:40;;;;;;;29.70;14.52;;;6.50;73.80;;;;;;5056068;28;20036;-77
2021/03/26 01:35:07;;;;;;;22.10;12.65;;;6.50;73.80;;;;;;5056613;28;20028;-75
2021/03/26 01:37:34;;;;;;;25.50;13.98;;;6.60;73.70;;;;;;5055829;28;20028;-75
2021/03/26 01:40:01;;;;;;;23.67;14.00;;;6.60;73.70;;;;;;5056866;28;20030;-75
2021/03/26 01:42:30;;;;;;;25.85;13.27;;;6.60;73.90;;;;;;5055901;28;20461;-75
2021/03/26 01:44:57;;;;;;;24.83;12.68;;;6.60;74.10;;;;;;5074119;28;20024;-75
2021/03/26 01:47:23;;;;;;;24.00;13.30;;;6.60;73.90;;;;;;5056076;28;20031;-75
2021/03/26 01:49:48;;;;;;;21.33;12.60;;;6.70;73.80;;;;;;5073822;28;20514;-75
2021/03/26 01:52:16;;;;;;;23.25;13.38;;;6.70;73.60;;;;;;5056059;28;20085;-76
2021/03/26 01:54:41;;;;;;;27.52;12.85;;;6.70;73.50;;;;;;5055989;28;20029;-76
2021/03/26 01:57:07;;;;;;;28.30;13.65;;;6.70;73.50;;;;;;5052637;28;20492;-75
2021/03/26 01:59:33;;;;;;;21.25;12.90;;;6.70;73.60;;;;;;5069179;28;20082;-74
2021/03/26 02:02:11;;;;;;;23.95;12.55;;;6.60;73.70;;;;;;5054953;28;20025;-76
2021/03/26 02:04:42;;;;;;;22.50;12.40;;;6.60;74.00;;;;;;5051911;28;20507;-74
2021/03/26 02:07:08;;;;;;;25.92;13.27;;;6.50;74.30;;;;;;5065777;28;20029;-75
2021/03/26 02:09:38;;;;;;;25.38;13.98;;;6.50;74.60;;;;;;5055504;28;20373;-74
2021/03/26 02:12:22;;;;;;;24.55;13.02;;;6.50;74.70;;;;;;5055757;28;20105;-75
2021/03/26 02:14:52;;;;;;;22.88;12.48;;;6.50;74.80;;;;;;5073525;28;20019;-75
2021/03/26 02:17:30;;;;;;;24.23;14.07;;;6.50;74.90;;;;;;5055259;28;20040;-75
2021/03/26 02:19:56;;;;;;;22.45;13.40;;;6.40;74.80;;;;;;5055472;28;20046;-74
2021/03/26 02:22:25;;;;;;;26.55;14.00;;;6.40;75.10;;;;;;5055378;28;20028;-75
2021/03/26 02:24:52;;;;;;;30.40;13.68;;;6.30;75.50;;;;;;5055311;28;20029;-74
2021/03/26 02:27:23;;;;;;;31.60;16.75;;;6.20;75.70;;;;;;5054626;28;20042;-74
2021/03/26 02:29:50;;;;;;;23.55;13.38;;;6.20;76.20;;;;;;5055183;28;20469;-74
2021/03/26 02:32:35;;;;;;;27.35;14.55;;;6.10;76.70;;;;;;5055213;28;20047;-74
2021/03/26 02:35:22;;;;;;;19.03;10.83;;;6.10;76.40;;;;;;5038572;28;20035;-74
2021/03/26 02:37:56;;;;;;;26.08;13.10;;;6.10;76.50;;;;;;5055133;28;20040;-77
2021/03/26 02:40:36;;;;;;;23.20;12.80;;;6.00;76.40;;;;;;5072903;28;20059;-76
2021/03/26 02:43:36;;;;;;;25.95;14.90;;;6.00;76.50;;;;;;5054820;28;20021;-76
2021/03/26 02:46:13;;;;;;;25.45;13.85;;;6.00;76.70;;;;;;5072836;28;20036;-77
2021/03/26 02:48:53;;;;;;;22.77;13.82;;;6.00;76.80;;;;;;5054443;28;20568;-76
2021/03/26 02:51:44;;;;;;;29.38;13.48;;;6.00;76.70;;;;;;5054882;28;20055;-75
2021/03/26 02:54:19;;;;;;;26.05;13.80;;;6.00;76.60;;;;;;5057142;28;20040;-74
2021/03/26 02:57:07;;;;;;;26.63;12.80;;;6.00;76.70;;;;;;5054848;28;20457;-75
2021/03/26 02:59:45;;;;;;;29.67;13.07;;;6.00;76.70;;;;;;5045150;28;20127;-75
2021/03/26 03:02:12;;;;;;;25.77;13.95;;;6.00;76.60;;;;;;5054924;28;20522;-75
2021/03/26 03:04:49;;;;;;;26.75;15.52;;;5.90;76.80;;;;;;5054827;28;20125;-75
2021/03/26 03:07:26;;;;;;;23.77;13.13;;;5.90;77.00;;;;;;5054814;28;20028;-75
2021/03/26 03:09:58;;;;;;;27.55;14.35;;;5.90;77.10;;;;;;5054918;28;20033;-75
2021/03/26 03:12:37;;;;;;;28.60;13.05;;;5.80;77.00;;;;;;5054999;28;20020;-76
2021/03/26 03:15:22;;;;;;;27.60;13.13;;;5.70;77.20;;;;;;5072896;28;20031;-75
2021/03/26 03:18:14;;;;;;;27.92;14.95;;;5.70;77.30;;;;;;5054606;28;20024;-76
2021/03/26 03:20:49;;;;;;;30.15;15.98;;;5.70;77.70;;;;;;5071259;28;20020;-76
2021/03/26 03:23:21;;;;;;;28.17;14.75;;;5.60;78.00;;;;;;5054687;28;20109;-75
2021/03/26 03:25:46;;;;;;;28.45;13.70;;;5.60;78.10;;;;;;5038651;28;20028;-76
2021/03/26 03:28:47;;;;;;;26.58;14.52;;;5.60;78.10;;;;;;5054324;28;20496;-72
2021/03/26 03:31:31;;;;;;;33.17;15.13;;;5.60;77.70;;;;;;5043881;28;20029;-76
2021/03/26 03:34:22;;;;;;;27.27;13.52;;;5.50;78.10;;;;;;5054279;28;20508;-76
2021/03/26 03:37:09;;;;;;;30.40;14.52;;;5.50;78.30;;;;;;5072541;28;20052;-76
2021/03/26 03:40:00;;;;;;;33.45;15.45;;;5.40;78.30;;;;;;5073886;28;20033;-77
2021/03/26 03:42:38;;;;;;;29.60;14.80;;;5.40;78.30;;;;;;5076657;28;20499;-76
2021/03/26 03:45:26;;;;;;;27.95;14.85;;;5.30;78.60;;;;;;5058726;28;20039;-76
2021/03/26 03:48:06;;;;;;;31.27;15.35;;;5.30;78.80;;;;;;5058802;28;20024;-75
2021/03/26 03:50:51;;;;;;;31.05;15.00;;;5.20;79.50;;;;;;5076316;28;20481;-76
2021/03/26 03:53:23;;;;;;;28.40;15.43;;;5.20;78.90;;;;;;5058447;28;20017;-76
2021/03/26 03:55:59;;;;;;;25.63;13.98;;;5.10;79.80;;;;;;5076502;28;20032;-76
2021/03/26 03:58:27;;;;;;;;;;;5.10;79.50;;;;;;5076710;28;20500;-75
2021/03/26 04:01:32;;;;;;;31.95;15.13;;;5.00;79.70;;;;;;5058444;28;19904;-77
2021/03/26 04:04:28;;;;;;;29.85;14.27;;;4.90;80.20;;;;;;5076109;28;20055;-73
2021/03/26 04:07:02;;;;;;;30.98;14.13;;;5.00;80.40;;;;;;5055131;28;20028;-73
2021/03/26 04:09:36;;;;;;;23.55;13.48;;;4.90;80.40;;;;;;5058141;28;20024;-73
2021/03/26 04:12:08;;;;;;;26.00;14.40;;;4.90;80.40;;;;;;5076036;28;20101;-75
2021/03/26 04:14:41;;;;;;;27.40;13.85;;;4.90;80.50;;;;;;5057960;28;20267;-75
2021/03/26 04:17:21;;;;;;;29.05;14.57;;;4.90;80.30;;;;;;5075900;28;20039;-75
2021/03/26 04:20:01;;;;;;;28.02;15.05;;;4.90;80.20;;;;;;5075433;28;20043;-76
2021/03/26 04:22:32;;;;;;;22.17;13.85;;;4.90;80.50;;;;;;5075673;28;20036;-75
2021/03/26 04:25:19;;;;;;;26.30;14.35;;;4.90;80.70;;;;;;5075826;28;20020;-75
2021/03/26 04:27:47;;;;;;;25.83;14.43;;;4.90;80.80;;;;;;5057824;28;20025;-77
2021/03/26 04:30:22;;;;;;;24.83;14.05;;;4.90;80.70;;;;;;5057870;28;20050;-77
2021/03/26 04:32:49;;;;;;;27.63;14.00;;;4.90;80.60;;;;;;5057522;28;20031;-74
2021/03/26 04:35:17;;;;;;;30.63;15.10;;;4.90;80.30;;;;;;5075515;28;20028;-77
2021/03/26 04:37:48;;;;;;;25.27;14.25;;;4.90;80.20;;;;;;5075435;28;20027;-76
2021/03/26 04:40:39;;;;;;;31.92;15.57;;;4.90;80.10;;;;;;5057673;28;20115;-75
2021/03/26 04:43:08;;;;;;;31.55;14.90;;;4.80;80.10;;;;;;5068346;28;20060;-75
2021/03/26 04:45:46;;;;;;;21.70;13.63;;;4.80;80.20;;;;;;5075350;28;20027;-74
2021/03/26 04:48:35;;;;;;;31.05;14.85;;;4.80;80.00;;;;;;5075650;28;20546;-75
2021/03/26 04:51:04;;;;;;;26.05;14.38;;;4.70;79.90;;;;;;5056972;28;20029;-75
2021/03/26 04:53:42;;;;;;;25.95;15.13;;;4.80;79.90;;;;;;5057112;28;20032;-75
2021/03/26 04:56:12;;;;;;;28.70;14.32;;;4.80;79.90;;;;;;5057057;28;20020;-74
2021/03/26 04:58:42;;;;;;;27.13;13.57;;;4.70;80.10;;;;;;5074863;28;20059;-79
2021/03/26 05:01:18;;;;;;;28.13;14.48;;;4.70;80.60;;;;;;5057020;28;20024;-79
2021/03/26 05:03:58;;;;;;;27.83;15.05;;;4.60;81.40;;;;;;5074733;28;20127;-79
2021/03/26 05:06:34;;;;;;;26.30;15.55;;;4.50;82.80;;;;;;5075062;28;20025;-80
2021/03/26 05:09:08;;;;;;;33.47;15.75;;;4.50;82.10;;;;;;5074093;28;20604;-80
2021/03/26 05:11:41;;;;;;;27.27;14.82;;;4.50;82.00;;;;;;5075768;28;20483;-80
2021/03/26 05:14:13;;;;;;;26.17;14.45;;;4.60;81.60;;;;;;5078458;28;20029;-80
2021/03/26 05:16:50;;;;;;;26.58;14.70;;;4.70;81.20;;;;;;5078260;28;20423;-80
2021/03/26 05:19:22;;;;;;;21.80;13.73;;;4.80;80.90;;;;;;5076947;28;20044;-79
2021/03/26 05:22:17;;;;;;;29.17;14.00;;;4.80;80.30;;;;;;5077279;28;20119;-78
2021/03/26 05:24:50;;;;;;;22.00;13.15;;;4.80;79.80;;;;;;5048598;28;20491;-74
2021/03/26 05:27:17;;;;;;;24.98;12.88;;;4.90;79.70;;;;;;5056338;28;20035;-74
2021/03/26 05:29:43;;;;;;;24.50;14.27;;;4.90;79.60;;;;;;5074229;28;20029;-75
2021/03/26 05:32:25;;;;;;;24.63;12.55;;;5.00;79.50;;;;;;5074063;28;20029;-73
2021/03/26 05:35:08;;;;;;;27.42;14.07;;;5.00;79.60;;;;;;5056575;28;20036;-75
2021/03/26 05:37:40;;;;;;;27.65;15.60;;;5.00;80.10;;;;;;5056185;28;20116;-73
2021/03/26 05:40:21;;;;;;;27.65;15.40;;;5.10;80.10;;;;;;5056657;28;20385;-74
2021/03/26 05:43:00;;;;;;;23.83;14.52;;;5.10;80.50;;;;;;5074435;28;20034;-74
2021/03/26 05:45:56;;;;;;;27.55;14.90;;;5.00;79.30;;;;;;5056314;28;20436;-74
2021/03/26 05:48:24;;;;;;;33.83;16.08;;;5.00;79.20;;;;;;5038213;28;20032;-74
2021/03/26 05:51:14;;;;;;;26.52;14.95;;;4.90;79.40;;;;;;5056202;28;20024;-74
2021/03/26 05:53:40;;;;;;;30.48;16.15;;;4.90;79.80;;;;;;5074005;28;20086;-74
2021/03/26 05:56:27;;;;;;;30.85;16.30;;;5.00;79.80;;;;;;5056023;28;20500;-75
2021/03/26 05:59:01;;;;;;;25.27;15.10;;;5.00;79.60;;;;;;5055904;28;20040;-74
2021/03/26 06:02:12;;;;;;;27.53;15.93;;;5.10;79.40;;;;;;5055642;28;20023;-74
2021/03/26 06:04:58;;;;;;;28.95;15.27;;;5.10;79.20;;;;;;5042315;28;20080;-74
2021/03/26 06:07:58;;;;;;;21.83;14.10;;;5.20;79.10;;;;;;5035723;28;20481;-76
2021/03/26 06:10:45;;;;;;;26.15;14.68;;;5.30;78.90;;;;;;5035563;28;20044;-75
2021/03/26 06:13:55;;;;;;;24.77;13.68;;;5.40;78.30;;;;;;5035856;28;20029;-74
2021/03/26 06:16:36;;;;;;;24.95;14.48;;;5.50;77.80;;;;;;5019855;28;20029;-74
2021/03/26 06:19:20;;;;;;;24.70;14.73;;;5.60;77.40;;;;;;5035501;28;20131;-74
2021/03/26 06:22:04;;;;;;;31.35;14.82;;;5.60;76.90;;;;;;5035705;28;20095;-77
2021/03/26 06:24:33;;;;;;;26.00;15.32;;;5.60;76.90;;;;;;5035558;28;20025;-76
2021/03/26 06:27:26;;;;;;;28.67;15.35;;;5.70;76.90;;;;;;5035491;28;20071;-75
2021/03/26 06:30:00;;;;;;;28.38;16.33;;;5.80;76.80;;;;;;5052943;28;20097;-76
2021/03/26 06:33:03;;;;;;;26.02;15.73;;;5.80;76.60;;;;;;5053132;28;20073;-75
2021/03/26 06:35:48;;;;;;;29.75;16.13;;;5.80;76.50;;;;;;5053018;28;20017;-76
2021/03/26 06:38:39;;;;;;;27.90;15.35;;;5.80;76.90;;;;;;5035402;28;20446;-75
2021/03/26 06:41:31;;;;;;;33.22;17.08;;;5.70;77.00;;;;;;5035150;28;20375;-77
2021/03/26 06:44:46;;;;;;;32.65;18.15;;;5.50;77.20;;;;;;5034918;28;20562;-76
2021/03/26 06:47:39;;;;;;;34.25;18.45;;;5.60;77.90;;;;;;5052460;28;20083;-76
2021/03/26 06:50:30;;;;;;;31.45;16.13;;;5.70;78.20;;;;;;5016024;28;20067;-74
2021/03/26 06:53:24;;;;;;;34.28;16.88;;;5.80;78.10;;;;;;5035097;28;20028;-75
2021/03/26 06:56:19;;;;;;;30.25;16.45;;;6.00;77.90;;;;;;5034978;28;20424;-75
2021/03/26 06:59:22;;;;;;;27.65;16.90;;;6.10;77.40;;;;;;5034698;28;20043;-74
2021/03/26 07:02:06;;;;;;;29.23;16.02;;;6.30;76.90;;;;;;5034447;28;20466;-75
2021/03/26 07:04:50;;;;;;;27.50;15.70;;;6.40;76.20;;;;;;5047461;28;20055;-75
2021/03/26 07:07:16;;;;;;;27.00;15.82;;;6.60;75.80;;;;;;5054728;28;20043;-75
2021/03/26 07:10:08;;;;;;;30.80;16.13;;;6.60;75.50;;;;;;5072578;28;20045;-75
2021/03/26 07:12:58;;;;;;;26.02;15.63;;;6.80;75.50;;;;;;5054643;28;20493;-75
2021/03/26 07:15:49;;;;;;;31.70;14.73;;;7.00;75.00;;;;;;5054575;28;20017;-76
2021/03/26 07:18:18;;;;;;;23.85;14.65;;;7.20;74.50;;;;;;5054696;28;20025;-76
2021/03/26 07:21:01;;;;;;;25.13;14.35;;;7.40;73.80;;;;;;5054679;28;20021;-78
2021/03/26 07:23:39;;;;;;;30.02;15.02;;;7.60;73.20;;;;;;5072582;28;20020;-75
2021/03/26 07:26:19;;;;;;;21.20;13.88;;;7.90;72.30;;;;;;5054694;28;20542;-75
2021/03/26 07:29:29;;;;;;;24.23;13.48;;;8.00;71.90;;;;;;5054661;28;20086;-76
2021/03/26 07:32:19;;;;;;;26.17;15.02;;;8.20;71.30;;;;;;5072664;28;20021;-76
2021/03/26 07:35:06;;;;;;;25.90;15.95;;;8.50;70.30;;;;;;5072515;28;20024;-75
2021/03/26 07:37:57;;;;;;;32.03;16.20;;;8.70;69.70;;;;;;5054407;28;20050;-76
2021/03/26 07:40:32;;;;;;;22.10;13.15;;;8.80;69.00;;;;;;5065088;28;20059;-75
2021/03/26 07:43:11;;;;;;;20.70;12.95;;;8.90;68.90;;;;;;5054641;28;20501;-75
2021/03/26 07:46:14;;;;;;;21.08;12.75;;;9.10;68.60;;;;;;5054007;28;20489;-75
2021/03/26 07:49:04;;;;;;;23.05;14.23;;;9.40;68.00;;;;;;5072481;28;20099;-77
2021/03/26 07:51:47;;;;;;;27.20;13.48;;;9.60;67.70;;;;;;5072330;28;20025;-75
2021/03/26 07:54:51;;;;;;;23.90;14.27;;;9.80;66.90;;;;;;5054586;28;20041;-75
2021/03/26 07:57:34;;;;;;;24.45;12.15;;;10.00;66.20;;;;;;5073395;28;20029;-75
2021/03/26 08:00:15;;;;;;;22.10;12.60;;;10.20;65.70;;;;;;5071585;28;20378;-75
2021/03/26 08:03:10;;;;;;;23.30;13.32;;;10.30;65.40;;;;;;5053793;28;20027;-76
2021/03/26 08:05:43;;;;;;;26.98;14.88;;;10.50;64.90;;;;;;5053703;28;20044;-75
2021/03/26 08:08:37;;;;;;;20.02;13.00;;;10.70;64.50;;;;;;5053671;28;20028;-76
2021/03/26 08:11:11;;;;;;;27.05;12.68;;;10.80;63.30;;;;;;5053956;28;20028;-76
2021/03/26 08:13:57;;;;;;;20.27;13.25;;;11.00;63.00;;;;;;5071809;28;20032;-76
2021/03/26 08:16:33;;;;;;;29.92;14.38;;;11.00;62.10;;;;;;5071936;28;20020;-76
2021/03/26 08:19:14;;;;;;;;;;;11.10;62.20;;;;;;5054550;28;20048;-75
2021/03/26 08:21:48;;;;;;;21.02;12.88;;;11.30;62.20;;;;;;5070587;28;19999;-76
2021/03/26 08:24:35;;;;;;;23.90;12.13;;;11.40;60.70;;;;;;5054050;28;20017;-76
2021/03/26 08:27:16;;;;;;;19.73;12.00;;;11.50;60.70;;;;;;5057671;28;20041;-77
2021/03/26 08:30:11;;;;;;;26.83;13.27;;;11.70;61.20;;;;;;5057692;28;20028;-77
2021/03/26 08:33:04;;;;;;;18.33;11.20;;;11.80;60.40;;;;;;5057283;28;20025;-78
2021/03/26 08:35:40;;;;;;;19.77;10.90;;;12.10;60.00;;;;;;5075500;28;20095;-76
2021/03/26 08:38:45;;;;;;;21.15;10.32;;;12.30;59.30;;;;;;5057311;28;20033;-76
2021/03/26 08:41:36;;;;;;;25.02;12.63;;;12.40;57.60;;;;;;5074987;28;20473;-78
2021/03/26 08:44:02;;;;;;;22.90;10.98;;;12.60;57.00;;;;;;5057423;28;20162;-77
2021/03/26 08:46:36;;;;;;;28.15;11.88;;;12.80;56.50;;;;;;5075230;28;20165;-76
2021/03/26 08:49:24;;;;;;;18.10;10.38;;;12.80;55.20;;;;;;5057140;28;20063;-77
2021/03/26 08:52:18;;;;;;;18.40;10.38;;;12.90;53.60;;;;;;5057340;28;20048;-76
2021/03/26 08:55:09;;;;;;;20.70;9.10;;;13.00;53.20;;;;;;5075108;28;20351;-77
2021/03/26 08:57:51;;;;;;;25.70;8.43;;;13.30;53.60;;;;;;5074817;28;20021;-77
2021/03/26 09:00:37;;;;;;;31.77;9.10;;;13.60;58.20;;;;;;5074736;28;20028;-75
2021/03/26 09:03:30;;;;;;;16.52;8.82;;;13.90;56.70;;;;;;5073331;28;20020;-76
2021/03/26 09:06:21;;;;;;;18.27;8.52;;;14.20;56.20;;;;;;5056771;28;20063;-75
2021/03/26 09:09:24;;;;;;;20.60;8.52;;;14.50;55.20;;;;;;5056914;28;20373;-75
2021/03/26 09:12:11;;;;;;;15.40;7.60;;;14.80;50.10;;;;;;5056531;28;20020;-75
2021/03/26 09:14:58;;;;;;;12.02;6.63;;;14.80;46.40;;;;;;5074550;28;20513;-75
2021/03/26 09:17:53;;;;;;;15.05;7.28;;;14.90;45.30;;;;;;5079437;22;20048;-76
2021/03/26 09:20:34;;;;;;;15.23;7.32;;;14.50;46.40;;;;;;5056286;28;20408;-77
2021/03/26 09:23:27;;;;;;;15.63;6.65;;;14.80;45.30;;;;;;5056643;28;20362;-77
2021/03/26 09:29:21;;;;;;;12.68;5.78;;;15.00;42.10;;;;;;5327098;22;20248;-76
2021/03/26 09:32:10;;;;;;;13.65;6.43;;;14.90;41.20;;;;;;5056680;28;20036;-77
2021/03/26 09:34:44;;;;;;;11.55;5.95;;;14.90;40.60;;;;;;5074147;28;20029;-77
2021/03/26 09:37:19;;;;;;;10.70;6.38;;;14.80;40.50;;;;;;5085219;28;20044;-77
2021/03/26 09:42:38;;;;;;;10.65;5.78;;;14.90;40.10;;;;;;5135027;22;20045;-77
2021/03/26 09:45:20;;;;;;;8.13;5.30;;;14.90;39.90;;;;;;5055779;28;20485;-77
2021/03/26 09:48:01;;;;;;;11.18;5.15;;;15.00;39.80;;;;;;5056125;28;20028;-76
2021/03/26 09:50:45;;;;;;;10.05;4.60;;;15.00;39.10;;;;;;5055625;28;20377;-77
2021/03/26 09:53:17;;;;;;;8.48;4.50;;;14.90;38.50;;;;;;5056079;28;20016;-78
2021/03/26 09:55:44;;;;;;;9.75;4.80;;;15.00;38.20;;;;;;5055860;28;20032;-76
2021/03/26 09:58:29;;;;;;;10.98;4.82;;;15.10;38.30;;;;;;5073565;28;20029;-76
2021/03/26 10:01:11;;;;;;;9.50;5.10;;;15.30;38.50;;;;;;5056034;28;20028;-76
2021/03/26 10:09:32;;;;;;;9.25;5.35;;;15.40;37.90;;;;;;5479819;22;20063;-77
2021/03/26 10:14:37;;;;;;;10.52;5.22;;;15.60;38.00;;;;;;5070021;28;20068;-77
2021/03/26 10:22:22;;;;;;;10.30;5.65;;;16.30;37.50;;;;;;5543795;22;20390;-76
2021/03/26 10:25:31;;;;;;;10.07;5.00;;;16.00;36.90;;;;;;5070310;22;20086;-76
2021/03/26 10:28:12;;;;;;;8.75;5.18;;;15.90;36.60;;;;;;5032819;28;20053;-75
2021/03/26 10:30:45;;;;;;;13.60;4.45;;;15.90;36.40;;;;;;5031644;28;20581;-78
2021/03/26 10:33:13;;;;;;;6.05;3.80;;;15.90;36.00;;;;;;5015621;28;20030;-79
2021/03/26 10:35:55;;;;;;;6.03;4.13;;;16.00;34.90;;;;;;5015255;28;20033;-79
2021/03/26 10:38:37;;;;;;;7.28;4.85;;;16.10;34.40;;;;;;5033245;28;20084;-77
2021/03/26 10:41:14;;;;;;;8.00;4.07;;;16.20;34.40;;;;;;5031945;28;20025;-77
2021/03/26 10:43:57;;;;;;;8.75;3.70;;;16.60;34.20;;;;;;5015299;28;20033;-77
2021/03/26 10:46:33;;;;;;;5.93;3.72;;;16.60;33.30;;;;;;5051309;28;20021;-76
2021/03/26 10:49:04;;;;;;;5.95;3.13;;;16.30;32.60;;;;;;5034698;28;20039;-78
2021/03/26 10:51:44;;;;;;;6.43;3.15;;;16.20;32.20;;;;;;5034787;28;20422;-79
2021/03/26 10:54:31;;;;;;;6.75;3.63;;;16.30;31.80;;;;;;5041026;28;20043;-79
2021/03/26 10:57:21;;;;;;;5.38;3.17;;;16.30;31.60;;;;;;5038103;28;20036;-78
2021/03/26 10:59:56;;;;;;;7.57;2.50;;;16.40;31.60;;;;;;5031563;28;20037;-78
2021/03/26 11:02:41;;;;;;;5.07;2.47;;;16.20;31.10;;;;;;5025876;28;20036;-77
2021/03/26 11:05:37;;;;;;;3.70;2.73;;;16.30;30.70;;;;;;5044566;28;20025;-77
2021/03/26 11:08:18;;;;;;;6.22;2.80;;;16.50;30.20;;;;;;5052530;28;20079;-77
2021/03/26 11:11:11;;;;;;;7.68;3.90;;;16.50;30.20;;;;;;5034336;28;20091;-77
2021/03/26 11:13:55;;;;;;;5.22;3.20;;;16.40;30.30;;;;;;5052426;28;20029;-76
2021/03/26 11:16:32;;;;;;;6.95;3.00;;;16.60;30.70;;;;;;5034498;28;20032;-76
2021/03/26 11:19:14;;;;;;;8.52;3.50;;;17.10;30.80;;;;;;5034362;28;20043;-77
2021/03/26 11:21:45;;;;;;;7.80;3.08;;;17.20;30.50;;;;;;5034330;28;20032;-76
2021/03/26 11:24:12;;;;;;;5.78;3.05;;;17.40;30.70;;;;;;5052311;28;20503;-76
2021/03/26 11:26:45;;;;;;;5.90;3.40;;;17.60;30.90;;;;;;5034180;28;20045;-76
2021/03/26 11:29:14;;;;;;;7.57;3.03;;;17.50;30.60;;;;;;5052357;28;20051;-75
2021/03/26 11:32:07;;;;;;;8.63;3.50;;;17.60;30.20;;;;;;5186429;23;20484;-75
2021/03/26 11:34:41;;;;;;;6.43;3.78;;;18.00;30.20;;;;;;5053573;28;20047;-74
2021/03/26 11:37:17;;;;;;;5.90;3.17;;;17.70;30.60;;;;;;5054233;28;20048;-75
2021/03/26 11:40:01;;;;;;;7.00;3.55;;;17.60;30.60;;;;;;5054164;28;20036;-74
2021/03/26 11:42:35;;;;;;;6.90;3.40;;;17.90;30.70;;;;;;5070945;28;20021;-76
2021/03/26 11:45:15;;;;;;;7.15;3.53;;;18.00;30.80;;;;;;5054294;28;20032;-75
2021/03/26 11:47:43;;;;;;;9.60;4.07;;;18.10;30.60;;;;;;5053863;28;20106;-74
2021/03/26 11:50:14;;;;;;;6.93;3.95;;;17.90;30.80;;;;;;5054184;28;20385;-75
2021/03/26 11:53:01;;;;;;;8.10;4.30;;;17.50;30.60;;;;;;5071908;28;20025;-75
2021/03/26 11:55:31;;;;;;;7.40;3.60;;;17.50;31.10;;;;;;5056203;28;20055;-74
2021/03/26 11:58:09;;;;;;;6.70;4.07;;;17.10;31.60;;;;;;5072137;28;20025;-76
2021/03/26 12:00:38;;;;;;;8.75;3.95;;;17.20;31.90;;;;;;5071878;28;20027;-76
2021/03/26 12:03:41;;;;;;;10.38;4.72;;;17.50;32.10;;;;;;5057924;28;20017;-75
2021/03/26 12:06:11;;;;;;;12.20;4.18;;;17.60;32.00;;;;;;5055229;28;20028;-78
2021/03/26 12:08:50;;;;;;;9.52;4.00;;;18.00;32.20;;;;;;5075857;28;20040;-77
2021/03/26 12:11:30;;;;;;;7.32;3.80;;;18.20;32.00;;;;;;5074877;28;20021;-77
2021/03/26 12:14:23;;;;;;;9.30;4.07;;;18.70;31.50;;;;;;5074452;28;20028;-75
2021/03/26 12:17:02;;;;;;;7.28;4.03;;;19.00;30.50;;;;;;5072497;28;20496;-76
2021/03/26 12:19:34;;;;;;;7.90;3.47;;;18.40;30.00;;;;;;5057617;28;20175;-76
2021/03/26 12:22:19;;;;;;;7.70;3.65;;;18.30;30.30;;;;;;5057516;28;20024;-76
2021/03/26 12:25:09;;;;;;;8.43;3.80;;;18.30;29.30;;;;;;5057727;28;20068;-76
2021/03/26 12:27:49;;;;;;;8.48;3.92;;;18.50;29.50;;;;;;5057642;28;20028;-76
2021/03/26 12:30:20;;;;;;;7.85;4.00;;;18.20;29.40;;;;;;5074234;28;20054;-77
2021/03/26 12:33:00;;;;;;;8.40;3.70;;;18.50;29.40;;;;;;5057326;28;20056;-76
2021/03/26 12:35:50;;;;;;;7.13;4.03;;;18.30;29.50;;;;;;5073975;28;20021;-77
2021/03/26 12:38:19;;;;;;;7.95;3.53;;;18.30;29.50;;;;;;5057053;28;20050;-77
2021/03/26 12:41:12;;;;;;;6.18;4.07;;;18.00;29.90;;;;;;5057096;28;20028;-76
2021/03/26 12:44:04;;;;;;;8.13;3.63;;;17.80;30.10;;;;;;5075135;28;20024;-76
2021/03/26 12:50:06;;;;;;;7.78;3.80;;;18.00;31.10;;;;;;5055104;28;20433;-77
2021/03/26 12:53:06;;;;;;;4.38;2.90;;;18.20;30.80;;;;;;5037043;28;20366;-77
2021/03/26 12:55:35;;;;;;;11.05;3.95;;;18.40;30.80;;;;;;5053411;28;20025;-77
2021/03/26 12:58:19;;;;;;;8.00;4.00;;;18.40;30.70;;;;;;5036397;28;20025;-77
2021/03/26 13:00:56;;;;;;;10.43;4.40;;;18.20;31.20;;;;;;5034423;28;20032;-77
2021/03/26 13:03:37;;;;;;;9.00;4.05;;;18.00;31.40;;;;;;5177679;23;20075;-76
2021/03/26 13:06:23;;;;;;;5.03;3.13;;;18.20;31.60;;;;;;5076437;28;20030;-76
2021/03/26 13:11:37;;;;;;;6.53;3.55;;;19.10;31.40;;;;;;5492772;22;20057;-77
2021/03/26 13:14:50;;;;;;;6.60;3.35;;;19.50;31.10;;;;;;5036861;28;20025;-76
2021/03/26 13:17:18;;;;;;;8.48;4.68;;;19.60;30.80;;;;;;5008292;28;20036;-77
2021/03/26 13:19:44;;;;;;;11.43;4.28;;;19.60;30.60;;;;;;5054624;28;20486;-77
2021/03/26 13:22:24;;;;;;;7.68;3.72;;;19.60;30.40;;;;;;5054638;28;20021;-79
2021/03/26 13:25:27;;;;;;;7.95;4.20;;;19.30;31.00;;;;;;5061797;23;20025;-77
2021/03/26 13:27:56;;;;;;;7.05;4.00;;;18.80;30.60;;;;;;5013779;28;20056;-78
2021/03/26 13:30:51;;;;;;;6.70;3.72;;;18.40;30.40;;;;;;5014841;28;20026;-77
2021/03/26 13:33:35;;;;;;;6.57;3.53;;;18.20;30.80;;;;;;4997262;28;20041;-77
2021/03/26 13:36:11;;;;;;;5.72;4.05;;;18.20;31.30;;;;;;5015365;28;20022;-77
2021/03/26 13:38:40;;;;;;;8.00;3.33;;;18.50;31.60;;;;;;4997009;28;20045;-78
2021/03/26 13:41:19;;;;;;;6.40;3.40;;;18.90;31.70;;;;;;5013301;28;20073;-78
2021/03/26 13:44:02;;;;;;;6.05;3.03;;;19.50;31.40;;;;;;4996677;28;20536;-77
2021/03/26 13:46:30;;;;;;;6.55;3.58;;;20.10;30.80;;;;;;5014364;28;20045;-77
2021/03/26 13:49:26;;;;;;;7.88;4.05;;;20.50;30.00;;;;;;5014185;28;20397;-77
2021/03/26 13:52:15;;;;;;;7.10;3.30;;;20.50;29.30;;;;;;4996712;28;20096;-77
2021/03/26 13:57:19;;;;;;;;;;;21.10;28.40;;;;;;5434886;23;20040;-77
2021/03/26 13:59:57;;;;;;;6.07;3.13;;;21.40;27.30;;;;;;5063382;22;20431;-77
2021/03/26 14:02:30;;;;;;;5.38;3.25;;;21.40;26.70;;;;;;5055894;28;20040;-77
2021/03/26 14:04:56;;;;;;;5.50;2.88;;;21.70;26.30;;;;;;5055712;28;20035;-78
2021/03/26 14:07:24;;;;;;;7.00;3.03;;;21.00;25.30;;;;;;5055527;28;20029;-77
2021/03/26 14:09:55;;;;;;;5.72;3.13;;;20.80;25.00;;;;;;5055413;28;20115;-75